< Typhoon 198523 1985 Season Typhoon 198525 >
Typhoon 198524 (FAYE)
General InformationTrack Information on Google MapsDetailed Wind InformationList of All Images || Disaster Info.ResourceGoogle EarthGE AnimationAtom FeedGeoJSON
Detalied Best Track (Time Zone = UTC)
Year Month Day Hour Lat. Long. Pressure (hPa) Wind (kt) Class Image Chart
1985 10 22 06 12.0 128.0 1006 0 2 Image Chart
1985 10 22 12 12.4 127.3 1004 0 2 Image Chart
1985 10 22 18 12.6 126.8 1004 0 2 Image Chart
1985 10 23 00 13.0 126.0 1004 0 2 Image Chart
1985 10 23 06 13.5 125.0 1002 0 2 Image Chart
1985 10 23 12 14.0 124.0 1002 0 2 Image Chart
1985 10 23 18 14.5 122.8 998 0 2 Image Chart
1985 10 24 00 15.0 122.0 996 0 2 Image Chart
1985 10 24 06 16.4 121.5 1000 0 2 Image Chart
1985 10 24 12 17.5 121.0 1000 0 2 Image Chart
1985 10 24 18 18.0 120.0 1000 0 2 Image Chart
1985 10 25 00 18.3 119.0 1000 40 3 Image Chart
1985 10 25 06 17.9 118.7 1000 40 3 Image Chart
1985 10 25 12 17.8 119.0 1000 40 3 Image Chart
1985 10 25 18 17.9 119.5 1000 40 3 Image Chart
1985 10 26 00 18.2 120.1 1000 35 3 Image Chart
1985 10 26 06 18.6 120.7 996 40 3 Image Chart
1985 10 26 12 18.9 121.5 996 40 3 Image Chart
1985 10 26 18 19.1 122.2 996 40 3 Image Chart
1985 10 27 00 19.3 122.5 996 50 4 Image Chart
1985 10 27 06 19.4 122.6 990 50 4 Image Chart
1985 10 27 12 19.5 122.7 990 50 4 Image Chart
1985 10 27 18 19.5 122.8 990 50 4 Image Chart
1985 10 28 00 19.5 122.9 990 50 4 Image Chart
1985 10 28 06 19.6 123.2 985 50 4 Image Chart
1985 10 28 12 19.9 123.5 980 65 5 Image Chart
1985 10 28 18 20.2 123.7 980 65 5 Image Chart
1985 10 29 00 20.6 123.9 980 65 5 Image Chart
1985 10 29 06 21.1 124.3 975 70 5 Image Chart
1985 10 29 12 21.6 124.8 970 75 5 Image Chart
1985 10 29 18 22.2 125.4 970 75 5 Image Chart
1985 10 30 00 22.8 126.0 965 75 5 Image Chart
1985 10 30 06 23.4 126.7 965 75 5 Image Chart
1985 10 30 12 24.0 127.5 970 75 5 Image Chart
1985 10 30 18 24.6 128.5 975 70 5 Image Chart
1985 10 31 00 25.2 129.4 980 70 5 Image Chart
1985 10 31 06 25.9 130.8 990 40 3 Image Chart
1985 10 31 12 26.5 132.5 994 0 6 Image Chart
1985 10 31 18 27.0 134.0 996 0 6 Image Chart
1985 11 1 00 27.5 136.0 998 0 6 Image Chart
1985 11 1 06 28.0 138.0 1000 0 6 Image Chart
1985 11 1 12 28.0 140.0 1004 0 6 Image Chart
1985 11 1 18 28.0 142.0 1008 0 6 Image Chart
Japan Meteorological Agency Best Track Data | Correction Date : 1992-10-21
< Typhoon 198523 1985 Season Typhoon 198525 >

Help